Old Tappan, New Jersey
Current Conditions -  °F | °C
As of 7:51 AM on Friday 19 Dec 2014 (Local Time) from KTEB Reporting Station
Overcast Overcast  
Wind Chill: 27°   Ceiling: 3600
Heat Index: 36°   Visibility: 10mi
Dew Point: 21°   Wind: 14mph
Humidity: 55%   Direction: 320°NW
Pressure: 30.03"   Gusts: 22mph
Location:  41.0025°N, 74.0303°W
Report Text: KTEB 191251Z 32012G19KT 10SM OVC036 02/M06 A3003 RMK AO2 SLP168 T00221061
Loading
Personal Weather Stations






























Interactive Weather Map New forecast layout! Learn more

10-Day Weather Forecast

Advertisements
Track Severe Weather on mobile